Terminal Aerodrome Forecast
Issued by NWS Duluth, MN

Home | Current Version | Previous Version | Text Only | Print | Product List | Glossary On
Versions: 1 2 3 4 5 6 7 8 9 10 11 12 13 14 15 16 17 18 19 20
000
FTUS43 KDLH 201720
TAFDLH
TAF
KDLH 201720Z 2018/2118 33010KT P6SM SCT045 BKN050
     FM210100 00000KT P6SM FEW045
     FM210300 00000KT P6SM SKC
     FM211500 20005KT P6SM SCT040=

USA.gov is the U.S. government's official web portal to all federal, state and local government web resources and services.